Language selection

Features

My Weather Profile Weather Topics  | 

Pacific - North Coast: Past 24 Hour Conditions

 

Masset Municipal Airport

09:00 AM PDT 17 October 2019
Disclaimer

This table is a summary of hourly weather conditions for the past 24 hours.
Please note that these observations might not always be representative of weather conditions over their associated marine area.

Date / Time
(PDT)
Wind(knots) Conditions Visibility(km) Pressure(kPa) Air tempC) Relative humidity(%) Dew pointC)
17 October 2019
9:00 SSE 7 Mostly Cloudy 24 98.3 8 99 8
8:00 S 5 Mostly Cloudy 24 98.3 8 100 8
7:00 SSE 6 Mostly Cloudy 24 98.2 8 100 8
6:00 SSW 4 N/A N/A 98.2 8 100 8
5:00 SSE 3 N/A N/A 98.2 8 100 8
4:00 SSE 5 N/A N/A 98.3 8 98 8
3:00 SSE 8 N/A N/A 98.3 9 97 9
2:00 S 9 N/A N/A 98.2 9 95 9
1:00 S 11 gust 18 N/A N/A 98.2 10 92 9
0:00 S 10 gust 18 N/A N/A 98.1 10 94 9
16 October 2019
23:00 SSE 10 gust 20 N/A N/A 98.1 10 93 9
22:00 SSE 10 gust 17 N/A N/A 98.2 10 92 9
21:00 SSE 12 gust 22 N/A N/A 98.2 10 92 9
20:00 SSE 14 gust 25 N/A N/A 98.3 10 91 9
19:00 SE 17 gust 24 N/A N/A 98.3 10 94 9
18:00 SE 17 gust 29 Light Rainshower 19 98.4 10 92 9
17:00 SE 13 gust 25 Light Rainshower 19 98.5 11 90 9
16:00 SE 13 gust 26 Light Rainshower 24 98.6 12 85 9
15:00 SE 16 gust 25 Mostly Cloudy 24 98.6 12 80 9
14:00 SSE 17 gust 25 Partly Cloudy 24 98.7 13 79 9
13:00 SSE 15 gust 23 Mostly Cloudy 24 98.7 12 86 10
12:00 SSE 11 gust 18 Mostly Cloudy 24 98.7 11 93 10
11:00 SSE 7 Light Rain 24 98.7 11 97 10
10:00 SSE 6 Light Rain 24 98.7 11 98 10
9:00 SE 6 Light Rain 24 98.7 11 100 11

Zoom-in to make a selection

Map of Pacific - North Coast marine weather areas Middle Nomad - 46004 South Nomad - 46036 Dixon Entrance Central - 46145 South Moresby - 46147 Nanakwa Shoal - 46181 North Hecate Strait - 46183 North Nomad - 46184 South Hecate Strait - 46185 West Sea Otter - 46204 West Dixon Entrance - 46205 East Dellwood - 46207 West Moresby - 46208 Sartine Island Cape St.James Kindakun Rocks Langara Island Masset Municipal Airport Rose Spit Sandspit Airport Bella Bella Airport Bella Coola Airport Bonilla Island Cathedral Point Cumshewa Island Grey Islet Holland Rock Lucy Islands Lightstation Prince Rupert Airport
Legend:
buoy Buoy
land station Land Station

Pacific - North Coast Area

Another Region

What we are doing

Date modified: